Time;durP1;ratioP1;P1;durP2;ratioP2;P2;SDS_P1;SDS_P2;PMS_P1;PMS_P2;Temp;Humidity;BMP_temperature;BMP_pressure;BME280_temperature;BME280_humidity;BME280_pressure;Samples;Min_cycle;Max_cycle;Signal;HPM_P1;HPM_P2
2023/03/13 00:01:38;;;;;;;0.97;0.97;;;10.60;99.90;;;10.67;nan;100045.34;4936117;29;21021;-66
2023/03/13 00:04:05;;;;;;;3.07;1.17;;;10.60;99.90;;;10.70;nan;100047.72;4936441;29;20616;-67
2023/03/13 00:06:36;;;;;;;0.60;0.60;;;10.60;99.90;;;10.69;nan;100034.78;4935823;29;20656;-66
2023/03/13 00:09:06;;;;;;;1.13;0.80;;;10.60;99.90;;;10.75;nan;100040.31;4930316;29;20633;-67
2023/03/13 00:11:34;;;;;;;1.87;0.97;;;10.70;99.90;;;10.80;nan;100042.56;4928887;29;20672;-67
2023/03/13 00:14:04;;;;;;;1.03;1.00;;;10.70;99.90;;;10.89;nan;100034.81;4935796;29;20633;-64
2023/03/13 00:16:33;;;;;;;2.70;1.30;;;10.80;99.90;;;10.95;nan;100025.63;4936714;29;21029;-67
2023/03/13 00:19:00;;;;;;;2.67;0.90;;;10.90;99.90;;;11.04;nan;100024.03;4935682;29;21231;-65
2023/03/13 00:21:29;;;;;;;5.03;0.73;;;10.90;99.90;;;11.08;nan;100021.06;4936789;29;20624;-67
2023/03/13 00:23:58;;;;;;;0.80;0.80;;;10.90;99.90;;;11.18;nan;100010.69;4935919;29;20645;-66
2023/03/13 00:26:27;;;;;;;1.07;1.03;;;11.00;99.90;;;11.29;nan;100016.63;4935018;29;20691;-65
2023/03/13 00:28:55;;;;;;;2.07;0.70;;;11.10;99.90;;;11.39;nan;100003.63;4935282;29;20652;-67
2023/03/13 00:31:30;;;;;;;1.20;0.70;;;11.30;99.90;;;11.46;nan;99996.91;4933037;29;21327;-68
2023/03/13 00:34:02;;;;;;;3.50;1.00;;;11.30;99.90;;;11.51;nan;99989.53;4934075;29;20633;-64
2023/03/13 00:36:34;;;;;;;1.57;0.30;;;11.40;99.90;;;11.51;nan;99986.91;4934937;29;20669;-66
2023/03/13 00:39:04;;;;;;;0.37;0.37;;;11.40;99.90;;;11.54;nan;99981.44;4941464;29;20980;-66
2023/03/13 00:41:32;;;;;;;3.43;1.70;;;11.40;99.90;;;11.57;nan;99970.69;4934424;29;20636;-67
2023/03/13 00:44:00;;;;;;;0.30;0.30;;;11.40;99.90;;;11.62;nan;99966.75;4935496;29;20714;-67
2023/03/13 00:46:28;;;;;;;2.00;0.70;;;11.50;99.90;;;11.71;nan;99966.94;4935319;29;20652;-67
2023/03/13 00:48:56;;;;;;;1.73;0.63;;;11.50;99.90;;;11.72;nan;99961.56;4949438;29;20625;-66
2023/03/13 00:51:25;;;;;;;0.60;0.60;;;11.50;99.90;;;11.77;nan;99963.78;4934213;29;20668;-64
2023/03/13 00:53:54;;;;;;;1.23;1.13;;;11.60;99.90;;;11.81;nan;99952.09;4935465;29;20637;-67
2023/03/13 00:56:21;;;;;;;0.37;0.37;;;11.60;99.90;;;11.81;nan;99952.09;4953850;23;20667;-63
2023/03/13 00:58:49;;;;;;;0.37;0.37;;;11.70;99.90;;;11.84;nan;99947.41;4991089;28;20650;-67
2023/03/13 01:01:27;;;;;;;2.37;0.90;;;11.70;99.90;;;11.81;nan;99942.47;4988202;28;20666;-69
2023/03/13 01:03:59;;;;;;;4.23;1.20;;;11.70;99.90;;;11.83;nan;99939.72;4973273;28;20626;-71
2023/03/13 01:06:31;;;;;;;0.50;0.50;;;11.70;99.90;;;11.84;nan;99930.94;4973186;28;20619;-67
2023/03/13 01:08:59;;;;;;;3.17;0.50;;;11.70;99.90;;;11.81;nan;99925.97;4983731;28;20638;-66
2023/03/13 01:11:30;;;;;;;0.50;0.50;;;11.70;99.90;;;11.78;nan;99919.22;5008644;28;20670;-67
2023/03/13 01:14:01;;;;;;;0.60;0.50;;;11.70;99.90;;;11.79;nan;99923.50;4991957;28;20614;-69
2023/03/13 01:16:31;;;;;;;4.10;1.40;;;11.70;99.90;;;11.71;nan;99912.06;4992494;28;20630;-67
2023/03/13 01:19:12;;;;;;;0.57;0.40;;;11.60;99.90;;;11.70;nan;99906.00;4991713;28;20629;-67
2023/03/13 01:21:43;;;;;;;2.77;0.60;;;11.60;99.90;;;11.69;nan;99899.13;5007960;28;20626;-68
2023/03/13 01:24:11;;;;;;;0.97;0.73;;;11.60;99.90;;;11.72;nan;99901.47;4991241;28;21273;-67
2023/03/13 01:26:38;;;;;;;3.60;1.10;;;11.60;99.90;;;11.74;nan;99896.09;4993271;28;20658;-67
2023/03/13 01:29:05;;;;;;;0.43;0.37;;;11.60;99.90;;;11.69;nan;99889.50;4991772;28;20638;-69
2023/03/13 01:31:35;;;;;;;0.67;0.60;;;11.60;99.90;;;11.71;nan;99888.53;4992097;28;21047;-67
2023/03/13 01:34:05;;;;;;;1.33;0.70;;;11.60;99.90;;;11.71;nan;99889.38;5007941;28;21199;-68
2023/03/13 01:36:35;;;;;;;1.93;0.80;;;11.60;99.90;;;11.71;nan;99888.53;4992029;28;20705;-67
2023/03/13 01:39:02;;;;;;;0.63;0.43;;;11.60;99.90;;;11.66;nan;99865.38;4991086;28;20693;-67
2023/03/13 01:41:30;;;;;;;1.60;0.97;;;11.50;99.90;;;11.67;nan;99870.50;5006409;28;20630;-67
2023/03/13 01:43:58;;;;;;;3.33;1.00;;;11.50;99.90;;;11.65;nan;99871.56;5004149;28;20642;-67
2023/03/13 01:46:28;;;;;;;0.77;0.50;;;11.50;99.90;;;11.62;nan;99862.22;4986307;28;21074;-68
2023/03/13 01:49:09;;;;;;;0.40;0.40;;;11.50;99.90;;;11.68;nan;99853.88;4991349;28;20631;-67
2023/03/13 01:51:47;;;;;;;0.50;0.50;;;11.60;99.90;;;11.58;nan;99855.59;4971315;28;20666;-67
2023/03/13 01:54:21;;;;;;;0.37;0.37;;;11.50;99.90;;;11.59;nan;99845.97;4976610;28;21187;-68
2023/03/13 01:56:59;;;;;;;0.80;0.80;;;11.40;99.90;;;11.57;nan;99847.91;4984301;28;20671;-68
2023/03/13 01:59:32;;;;;;;2.00;0.77;;;11.40;99.90;;;11.54;nan;99835.94;4985872;28;21195;-69
2023/03/13 02:02:01;;;;;;;0.40;0.40;;;11.40;99.90;;;11.56;nan;99844.47;4986341;28;20646;-67
2023/03/13 02:04:35;;;;;;;2.10;1.03;;;11.40;99.90;;;11.53;nan;99839.53;4972235;28;20619;-67
2023/03/13 02:07:10;;;;;;;3.23;0.60;;;11.40;99.90;;;11.55;nan;99836.78;5000406;28;20665;-67
2023/03/13 02:09:41;;;;;;;0.57;0.53;;;11.40;99.90;;;11.50;nan;99828.50;5007522;28;20700;-67
2023/03/13 02:12:12;;;;;;;0.73;0.60;;;11.40;99.90;;;11.46;nan;99829.72;5003866;28;20852;-67
2023/03/13 02:14:43;;;;;;;0.40;0.40;;;11.30;99.90;;;11.41;nan;99830.16;5001925;28;20632;-67
2023/03/13 02:17:12;;;;;;;0.40;0.30;;;11.30;99.90;;;11.40;nan;99814.59;5004587;28;20658;-70
2023/03/13 02:19:47;;;;;;;4.00;1.07;;;11.20;99.90;;;11.35;nan;99809.78;5006080;28;21210;-67
2023/03/13 02:22:32;;;;;;;0.50;0.50;;;11.20;99.90;;;11.38;nan;99806.09;4991214;28;20628;-69
2023/03/13 02:25:24;;;;;;;0.30;0.30;;;11.20;99.90;;;11.34;nan;99805.53;4987868;28;20639;-67
2023/03/13 02:28:00;;;;;;;0.30;0.30;;;11.20;99.90;;;11.34;nan;99804.72;4972511;28;20786;-67
2023/03/13 02:30:27;;;;;;;2.00;0.83;;;11.20;99.90;;;11.38;nan;99806.91;4986301;28;21258;-68
2023/03/13 02:32:55;;;;;;;2.57;0.80;;;11.30;99.90;;;11.35;nan;99804.56;4990757;28;20662;-67
2023/03/13 02:35:23;;;;;;;1.90;0.60;;;11.20;99.90;;;11.34;nan;99797.69;4989650;28;20637;-68
2023/03/13 02:37:56;;;;;;;0.70;0.70;;;11.20;99.90;;;11.35;nan;99793.31;4989549;28;20662;-70
2023/03/13 02:40:30;;;;;;;2.10;0.90;;;11.20;99.90;;;11.36;nan;99789.72;5004533;28;21198;-71
2023/03/13 02:43:02;;;;;;;0.70;0.43;;;11.20;99.90;;;11.34;nan;99782.03;4987127;28;20664;-68
2023/03/13 02:45:29;;;;;;;0.47;0.47;;;11.20;99.90;;;11.36;nan;99763.59;4971180;28;20634;-70
2023/03/13 02:47:55;;;;;;;0.60;0.47;;;11.20;99.90;;;11.39;nan;99763.34;4988525;28;20685;-68
2023/03/13 02:50:23;;;;;;;3.50;0.70;;;11.20;99.90;;;11.39;nan;99768.56;4988945;28;20680;-67
2023/03/13 02:52:58;;;;;;;0.30;0.30;;;11.20;99.90;;;11.37;nan;99760.84;5006998;28;20666;-68
2023/03/13 02:55:34;;;;;;;2.97;0.80;;;11.20;99.90;;;11.38;nan;99751.25;5006305;28;20638;-67
2023/03/13 02:58:01;;;;;;;0.60;0.60;;;11.30;99.90;;;11.36;nan;99737.50;4990150;28;21270;-67
2023/03/13 03:00:28;;;;;;;0.97;0.70;;;11.20;99.90;;;11.33;nan;99733.34;4990571;28;20625;-67
2023/03/13 03:02:56;;;;;;;6.70;0.50;;;11.20;99.90;;;11.31;nan;99734.44;4990501;28;20638;-67
2023/03/13 03:05:23;;;;;;;1.03;0.63;;;11.20;99.90;;;11.36;nan;99727.03;4990123;28;20633;-67
2023/03/13 03:07:50;;;;;;;4.10;0.67;;;11.20;99.90;;;11.38;nan;99735.56;4989577;28;20669;-67
2023/03/13 03:10:18;;;;;;;0.50;0.50;;;11.20;99.90;;;11.36;nan;99724.44;4989753;28;20634;-67
2023/03/13 03:12:45;;;;;;;0.60;0.60;;;11.20;99.90;;;11.35;nan;99730.63;4989954;28;20670;-67
2023/03/13 03:15:12;;;;;;;0.60;0.60;;;11.20;99.90;;;11.38;nan;99725.13;4989293;28;20614;-68
2023/03/13 03:17:39;;;;;;;3.30;1.37;;;11.30;99.90;;;11.34;nan;99723.75;4987638;28;20650;-68
2023/03/13 03:20:10;;;;;;;2.00;1.07;;;11.20;99.90;;;11.33;nan;99727.34;4990489;28;20610;-67
2023/03/13 03:22:39;;;;;;;2.33;0.57;;;11.20;99.90;;;11.38;nan;99719.91;5003714;28;20629;-67
2023/03/13 03:25:08;;;;;;;0.40;0.40;;;11.20;99.90;;;11.35;nan;99728.03;4980017;28;21183;-68
2023/03/13 03:27:36;;;;;;;0.93;0.50;;;11.20;99.90;;;11.37;nan;99726.91;4990073;28;20653;-67
2023/03/13 03:30:07;;;;;;;0.80;0.80;;;11.20;99.90;;;11.36;nan;99724.44;4990645;28;20705;-67
2023/03/13 03:32:34;;;;;;;2.00;1.13;;;11.20;99.90;;;11.40;nan;99718.81;4990794;28;20670;-70
2023/03/13 03:35:01;;;;;;;1.17;1.10;;;11.30;99.90;;;11.38;nan;99730.34;4991048;28;20984;-67
2023/03/13 03:37:28;;;;;;;0.40;0.40;;;11.30;99.90;;;11.28;nan;99724.28;4991071;28;20663;-69
2023/03/13 03:39:55;;;;;;;1.93;0.60;;;11.20;99.90;;;11.27;nan;99714.81;4991844;28;20614;-67
2023/03/13 03:42:22;;;;;;;2.37;0.40;;;11.20;99.90;;;11.26;nan;99707.94;4989583;28;21078;-67
2023/03/13 03:44:49;;;;;;;1.27;0.70;;;11.10;99.90;;;11.24;nan;99712.47;4987718;28;20693;-69
2023/03/13 03:47:16;;;;;;;0.57;0.57;;;11.20;99.90;;;11.18;nan;99706.00;4975356;28;20712;-66
2023/03/13 03:49:43;;;;;;;0.70;0.70;;;11.10;99.90;;;11.15;nan;99702.84;4981325;28;20645;-67
2023/03/13 03:52:10;;;;;;;11.93;0.63;;;11.00;99.90;;;11.11;nan;99717.97;4993672;28;20673;-67
2023/03/13 03:54:37;;;;;;;0.90;0.90;;;11.00;99.90;;;11.09;nan;99719.88;4993920;28;20631;-67
2023/03/13 03:57:04;;;;;;;0.40;0.40;;;11.00;99.90;;;11.08;nan;99726.06;4986567;28;20672;-68
2023/03/13 03:59:31;;;;;;;0.53;0.53;;;11.00;99.90;;;10.99;nan;99718.22;4991232;28;20630;-67
2023/03/13 04:01:58;;;;;;;0.90;0.90;;;10.90;99.90;;;11.01;nan;99713.69;4993234;28;20684;-66
2023/03/13 04:04:26;;;;;;;2.27;1.20;;;10.90;99.90;;;11.01;nan;99719.72;4993596;28;21084;-69
2023/03/13 04:06:53;;;;;;;0.50;0.50;;;10.90;99.90;;;10.93;nan;99709.97;4993847;28;20644;-69
2023/03/13 04:09:21;;;;;;;3.33;0.90;;;10.90;99.90;;;10.91;nan;99716.28;4992910;28;20641;-68
2023/03/13 04:11:48;;;;;;;0.77;0.77;;;10.80;99.90;;;10.90;nan;99722.47;4992474;28;20662;-67
2023/03/13 04:14:15;;;;;;;2.20;0.90;;;10.80;99.90;;;10.88;nan;99712.13;4992251;28;20723;-67
2023/03/13 04:16:42;;;;;;;3.23;0.63;;;10.80;99.90;;;10.87;nan;99707.06;4991699;28;20664;-68
2023/03/13 04:19:09;;;;;;;0.73;0.37;;;10.80;99.90;;;10.82;nan;99704.84;4986497;28;20622;-67
2023/03/13 04:21:36;;;;;;;1.00;0.70;;;10.70;99.90;;;10.76;nan;99694.97;4992792;28;20660;-68
2023/03/13 04:24:04;;;;;;;1.60;0.60;;;10.70;99.90;;;10.75;nan;99695.09;4993427;28;20618;-68
2023/03/13 04:26:31;;;;;;;0.77;0.50;;;10.60;99.90;;;10.78;nan;99700.03;4992780;28;20650;-67
2023/03/13 04:28:58;;;;;;;0.80;0.80;;;10.70;99.90;;;10.74;nan;99691.66;4993083;28;20638;-67
2023/03/13 04:31:24;;;;;;;1.57;0.47;;;10.70;99.90;;;10.75;nan;99698.50;4993630;28;20651;-68
2023/03/13 04:33:51;;;;;;;0.93;0.80;;;10.60;99.90;;;10.78;nan;99689.59;4993526;28;20630;-70
2023/03/13 04:36:18;;;;;;;1.27;0.63;;;10.60;99.90;;;10.79;nan;99683.44;4991585;28;20634;-67
2023/03/13 04:38:45;;;;;;;0.67;0.57;;;10.70;99.90;;;10.81;nan;99686.72;4992648;28;20690;-70
2023/03/13 04:41:12;;;;;;;1.00;0.63;;;10.70;99.90;;;10.83;nan;99685.63;4992613;28;20652;-67
2023/03/13 04:43:39;;;;;;;0.57;0.30;;;10.70;99.90;;;10.83;nan;99690.03;4994382;28;20630;-67
2023/03/13 04:46:06;;;;;;;1.43;0.60;;;10.70;99.90;;;10.81;nan;99695.38;4992915;28;20630;-67
2023/03/13 04:48:33;;;;;;;2.30;0.77;;;10.70;99.90;;;10.86;nan;99695.78;4993008;28;20711;-67
2023/03/13 04:51:00;;;;;;;0.90;0.90;;;10.70;99.90;;;10.85;nan;99696.78;4992760;28;20638;-69
2023/03/13 04:53:27;;;;;;;1.70;0.57;;;10.70;99.90;;;10.88;nan;99680.81;4992579;28;20723;-67
2023/03/13 04:55:54;;;;;;;0.40;0.40;;;10.80;99.90;;;10.90;nan;99678.91;4993391;28;21018;-70
2023/03/13 04:58:21;;;;;;;3.10;0.30;;;10.80;99.90;;;10.89;nan;99671.22;4992328;28;20696;-67
2023/03/13 05:00:48;;;;;;;1.43;0.57;;;10.80;99.90;;;10.88;nan;99675.59;4993730;28;21281;-67
2023/03/13 05:03:15;;;;;;;0.80;0.80;;;10.80;99.90;;;10.94;nan;99682.09;4982686;28;20635;-67
2023/03/13 05:05:42;;;;;;;4.77;0.40;;;10.80;99.90;;;10.97;nan;99681.00;4974712;28;20639;-67
2023/03/13 05:08:09;;;;;;;0.60;0.60;;;10.90;99.90;;;10.99;nan;99677.25;4980124;28;20651;-68
2023/03/13 05:10:36;;;;;;;0.30;0.30;;;10.90;99.90;;;11.04;nan;99674.25;4984861;28;20643;-68
2023/03/13 05:13:03;;;;;;;0.90;0.50;;;10.90;99.90;;;11.06;nan;99677.56;4992619;28;20658;-67
2023/03/13 05:15:30;;;;;;;1.07;0.57;;;10.90;99.90;;;11.12;nan;99677.84;4990918;28;20635;-68
2023/03/13 05:17:57;;;;;;;0.67;0.40;;;10.90;99.90;;;11.14;nan;99662.84;4989787;28;20665;-67
2023/03/13 05:20:24;;;;;;;0.83;0.83;;;11.00;99.90;;;11.13;nan;99656.00;4987297;28;20630;-70
2023/03/13 05:22:51;;;;;;;5.40;0.87;;;11.00;99.90;;;11.13;nan;99655.16;4992087;28;20626;-67
2023/03/13 05:25:19;;;;;;;0.67;0.40;;;11.00;99.90;;;11.14;nan;99654.22;4992061;28;20638;-67
2023/03/13 05:27:46;;;;;;;0.33;0.33;;;11.00;99.90;;;11.21;nan;99644.84;4993115;28;20712;-68
2023/03/13 05:30:13;;;;;;;0.53;0.53;;;11.10;99.90;;;11.27;nan;99639.06;4991103;28;20638;-67
2023/03/13 05:32:40;;;;;;;1.13;0.60;;;11.10;99.90;;;11.24;nan;99634.16;4992375;28;21288;-70
2023/03/13 05:35:07;;;;;;;2.33;0.73;;;11.10;99.90;;;11.25;nan;99635.78;4991554;28;20635;-68
2023/03/13 05:37:34;;;;;;;0.70;0.70;;;11.10;99.90;;;11.25;nan;99626.16;4992585;28;20645;-67
2023/03/13 05:40:01;;;;;;;0.50;0.50;;;11.10;99.90;;;11.27;nan;99621.63;4991314;28;20621;-69
2023/03/13 05:42:29;;;;;;;0.70;0.70;;;11.10;99.90;;;11.30;nan;99629.19;4991266;28;21269;-68
2023/03/13 05:44:56;;;;;;;1.83;0.73;;;11.20;99.90;;;11.35;nan;99626.16;4991397;28;20720;-67
2023/03/13 05:47:23;;;;;;;0.40;0.40;;;11.20;99.90;;;11.40;nan;99624.78;4991802;28;20662;-70
2023/03/13 05:49:50;;;;;;;0.67;0.67;;;11.20;99.90;;;11.47;nan;99622.44;4991805;28;20680;-68
2023/03/13 05:52:17;;;;;;;1.17;0.67;;;11.30;99.90;;;11.54;nan;99618.31;4991546;28;20673;-70
2023/03/13 05:54:44;;;;;;;0.50;0.50;;;11.40;99.90;;;11.59;nan;99639.59;4992682;28;20618;-69
2023/03/13 05:57:11;;;;;;;0.50;0.50;;;11.50;99.90;;;11.63;nan;99639.16;4991584;28;21849;-67
2023/03/13 05:59:39;;;;;;;1.03;0.90;;;11.50;99.90;;;11.63;nan;99623.50;4992171;28;20634;-68
2023/03/13 06:02:06;;;;;;;0.80;0.80;;;11.50;99.90;;;11.63;nan;99617.44;4992183;28;20623;-68
2023/03/13 06:04:34;;;;;;;0.60;0.43;;;11.50;99.90;;;11.65;nan;99616.34;4990535;28;20647;-67
2023/03/13 06:07:01;;;;;;;0.70;0.60;;;11.60;99.90;;;11.68;nan;99623.09;4989483;28;20668;-67
2023/03/13 06:09:28;;;;;;;0.83;0.83;;;11.60;99.90;;;11.68;nan;99623.09;4990773;28;20642;-69
2023/03/13 06:11:56;;;;;;;0.40;0.40;;;11.50;99.90;;;11.71;nan;99615.00;4990259;28;20646;-67
2023/03/13 06:14:23;;;;;;;0.30;0.30;;;11.60;99.90;;;11.71;nan;99614.16;4992038;28;20623;-67
2023/03/13 06:16:50;;;;;;;0.40;0.40;;;11.60;99.90;;;11.73;nan;99617.47;4991076;28;20645;-67
2023/03/13 06:19:17;;;;;;;2.70;1.13;;;11.60;99.90;;;11.79;nan;99614.28;4991029;28;20688;-67
2023/03/13 06:21:44;;;;;;;0.40;0.40;;;11.60;99.90;;;11.82;nan;99609.56;4992231;28;20614;-68
2023/03/13 06:24:11;;;;;;;0.60;0.60;;;11.70;99.90;;;11.85;nan;99617.16;4991470;28;20689;-67
2023/03/13 06:26:38;;;;;;;0.30;0.30;;;11.70;99.90;;;11.88;nan;99626.50;4991693;28;20639;-67
2023/03/13 06:29:05;;;;;;;0.80;0.70;;;11.70;99.90;;;11.88;nan;99619.47;4991234;28;21214;-65
2023/03/13 06:31:32;;;;;;;0.87;0.63;;;11.70;99.90;;;11.91;nan;99611.34;4991178;28;20998;-69
2023/03/13 06:33:59;;;;;;;0.53;0.53;;;11.80;99.90;;;11.93;nan;99612.03;4989806;28;20666;-66
2023/03/13 06:36:27;;;;;;;1.67;0.93;;;11.80;99.90;;;11.97;nan;99600.31;4991103;28;21060;-67
2023/03/13 06:38:55;;;;;;;0.50;0.50;;;11.80;99.90;;;12.01;nan;99606.09;4989832;28;20638;-68
2023/03/13 06:41:23;;;;;;;0.40;0.40;;;11.80;99.90;;;12.02;nan;99599.88;4984531;28;20635;-69
2023/03/13 06:43:50;;;;;;;0.33;0.33;;;11.90;99.90;;;12.09;nan;99604.41;4989482;28;20680;-65
2023/03/13 06:46:21;;;;;;;0.60;0.60;;;11.90;99.90;;;12.12;nan;99609.31;4982599;28;20628;-67
2023/03/13 06:48:49;;;;;;;0.53;0.53;;;12.00;99.90;;;12.16;nan;99617.72;4989869;28;20637;-68
2023/03/13 06:51:19;;;;;;;0.60;0.60;;;12.00;99.90;;;12.20;nan;99617.25;4984895;28;21262;-67
2023/03/13 06:53:48;;;;;;;0.60;0.60;;;12.00;99.90;;;12.30;nan;99610.22;4990153;28;20657;-70
2023/03/13 06:56:14;;;;;;;0.50;0.50;;;12.20;99.90;;;12.36;nan;99606.19;4969204;28;20721;-71
2023/03/13 06:58:41;;;;;;;0.50;0.50;;;12.20;99.90;;;12.41;nan;99591.69;4997154;23;20700;-66
2023/03/13 07:01:11;;;;;;;0.30;0.30;;;12.30;99.90;;;12.48;nan;99580.66;4951748;29;20642;-66
2023/03/13 07:03:40;;;;;;;0.40;0.40;;;12.30;99.90;;;12.67;nan;99576.09;4950525;29;20636;-64
2023/03/13 07:06:08;;;;;;;0.40;0.30;;;12.50;99.90;;;12.87;nan;99566.31;4945789;28;20652;-67
2023/03/13 07:08:36;;;;;;;0.60;0.60;;;12.70;99.90;;;12.99;nan;99572.97;4950889;28;20654;-66
2023/03/13 07:11:07;;;;;;;0.50;0.40;;;12.80;99.90;;;13.03;nan;99576.94;4951020;28;21228;-66
2023/03/13 07:13:34;;;;;;;0.27;0.27;;;12.80;99.90;;;13.04;nan;99582.03;4950325;28;20671;-65
2023/03/13 07:16:04;;;;;;;0.50;0.43;;;12.90;99.90;;;13.13;nan;99596.03;4968065;28;20685;-64
2023/03/13 07:18:32;;;;;;;0.30;0.30;;;12.90;99.90;;;13.22;nan;99597.75;4970102;28;20663;-65
2023/03/13 07:21:04;;;;;;;0.30;0.30;;;13.00;99.90;;;13.28;nan;99597.13;4954906;28;20640;-67
2023/03/13 07:23:33;;;;;;;0.30;0.30;;;13.10;99.90;;;13.36;nan;99605.03;4955363;28;20632;-66
2023/03/13 07:26:09;;;;;;;0.43;0.43;;;13.10;99.90;;;13.46;nan;99603.13;4955421;28;20640;-67
2023/03/13 07:28:36;;;;;;;0.43;0.40;;;13.20;99.90;;;13.46;nan;99608.38;4954150;28;20717;-65
2023/03/13 07:31:07;;;;;;;0.50;0.50;;;13.30;99.90;;;13.53;nan;99627.75;4955442;28;21039;-67
2023/03/13 07:33:34;;;;;;;0.40;0.40;;;13.30;99.90;;;13.50;nan;99616.78;4955556;29;20664;-66
2023/03/13 07:36:02;;;;;;;0.77;0.70;;;13.30;99.90;;;13.47;nan;99625.75;4956003;29;20634;-68
2023/03/13 07:38:29;;;;;;;0.50;0.50;;;13.30;99.90;;;13.40;nan;99616.84;4955887;29;20640;-67
2023/03/13 07:40:57;;;;;;;0.70;0.70;;;13.20;99.90;;;13.37;nan;99606.69;4955997;28;21205;-64
2023/03/13 07:43:25;;;;;;;0.50;0.50;;;13.20;99.90;;;13.41;nan;99602.78;4955697;28;20628;-65
2023/03/13 07:46:01;;;;;;;0.50;0.50;;;13.20;99.90;;;13.46;nan;99605.75;4955277;28;21017;-66
2023/03/13 07:48:32;;;;;;;1.17;0.70;;;13.20;99.90;;;13.50;nan;99611.53;4956025;28;20655;-66
2023/03/13 07:51:00;;;;;;;0.63;0.63;;;13.30;99.90;;;13.52;nan;99601.72;4956135;29;20616;-66
2023/03/13 07:53:27;;;;;;;0.70;0.70;;;13.30;99.90;;;13.58;nan;99609.78;4954622;29;20652;-66
2023/03/13 07:55:59;;;;;;;1.37;0.70;;;13.40;99.90;;;13.68;nan;99607.06;4956499;28;20636;-66
2023/03/13 07:58:30;;;;;;;1.90;0.90;;;13.50;99.90;;;13.77;nan;99609.59;4953653;28;20668;-65
2023/03/13 08:00:58;;;;;;;0.97;0.93;;;13.60;99.90;;;13.87;nan;99599.81;4954150;29;21003;-65
2023/03/13 08:03:25;;;;;;;1.33;0.90;;;13.70;99.90;;;13.94;nan;99598.22;4954822;29;20632;-65
2023/03/13 08:06:02;;;;;;;1.63;0.70;;;13.80;99.90;;;14.00;nan;99600.19;4938956;29;20639;-66
2023/03/13 08:08:29;;;;;;;2.30;0.90;;;13.80;99.90;;;14.05;nan;99591.03;4954622;28;20682;-66
2023/03/13 08:11:17;;;;;;;0.80;0.80;;;13.90;99.90;;;14.10;nan;99583.53;4955448;28;20644;-66
2023/03/13 08:13:45;;;;;;;0.90;0.90;;;14.00;99.90;;;14.17;nan;99592.38;4954038;29;20706;-66
2023/03/13 08:16:29;;;;;;;0.90;0.90;;;14.00;99.90;;;14.23;nan;99597.00;4954123;29;20640;-66
2023/03/13 08:18:58;;;;;;;1.97;0.97;;;14.10;99.90;;;14.30;nan;99588.38;4951527;28;20702;-66
2023/03/13 08:21:30;;;;;;;1.23;0.83;;;14.10;99.90;;;14.41;nan;99592.53;4954763;28;20629;-66
2023/03/13 08:24:02;;;;;;;1.90;0.80;;;14.20;99.90;;;14.59;nan;99588.78;4954045;28;20643;-66
2023/03/13 08:26:30;;;;;;;1.43;0.70;;;14.40;99.90;;;14.70;nan;99587.66;4953802;29;21189;-65
2023/03/13 08:29:04;;;;;;;0.70;0.70;;;14.50;99.90;;;14.72;nan;99606.69;4953109;28;20667;-66
2023/03/13 08:31:51;;;;;;;1.40;1.10;;;14.50;99.90;;;14.73;nan;99600.47;4955638;29;20632;-66
2023/03/13 08:34:19;;;;;;;2.00;1.40;;;14.50;99.90;;;14.77;nan;99604.41;4936181;29;20668;-66
2023/03/13 08:36:46;;;;;;;0.90;0.90;;;14.60;99.90;;;14.82;nan;99604.75;4934898;28;21022;-63
2023/03/13 08:39:17;;;;;;;0.80;0.80;;;14.70;99.90;;;14.84;nan;99618.56;4969889;28;21181;-66
2023/03/13 08:41:44;;;;;;;0.83;0.83;;;14.70;99.90;;;14.88;nan;99611.16;4953614;28;20639;-66
2023/03/13 08:44:14;;;;;;;0.90;0.90;;;14.70;99.90;;;14.90;nan;99615.28;4954226;28;21013;-64
2023/03/13 08:46:44;;;;;;;0.77;0.77;;;14.70;99.90;;;14.94;nan;99616.59;4953650;28;20735;-67
2023/03/13 08:49:12;;;;;;;1.00;1.00;;;14.70;99.90;;;14.95;nan;99617.41;4953970;28;20635;-66
2023/03/13 08:51:39;;;;;;;1.73;0.67;;;14.80;99.90;;;14.91;nan;99626.56;4968394;28;20636;-64
2023/03/13 08:54:06;;;;;;;0.67;0.67;;;14.80;99.90;;;14.88;nan;99629.53;4954647;28;20659;-65
2023/03/13 08:56:33;;;;;;;1.03;1.00;;;14.70;99.90;;;14.81;nan;99633.78;4953328;28;21047;-65
2023/03/13 08:59:03;;;;;;;0.80;0.80;;;14.60;99.90;;;14.74;nan;99628.34;4954753;28;20668;-65
2023/03/13 09:01:33;;;;;;;1.70;0.87;;;14.60;99.90;;;14.73;nan;99609.19;4954803;29;20624;-65
2023/03/13 09:04:01;;;;;;;1.20;1.20;;;14.60;99.90;;;14.82;nan;99610.03;4967433;28;20632;-65
2023/03/13 09:06:35;;;;;;;1.13;1.00;;;14.60;99.90;;;14.87;nan;99622.63;4953891;29;20695;-65
2023/03/13 09:09:04;;;;;;;0.90;0.90;;;14.60;99.90;;;14.93;nan;99622.00;4952581;28;20667;-66
2023/03/13 09:11:31;;;;;;;1.07;1.07;;;14.80;99.90;;;14.92;nan;99626.44;4953417;29;21213;-64
2023/03/13 09:13:58;;;;;;;0.80;0.80;;;14.80;99.90;;;14.95;nan;99625.28;4952666;28;21132;-66
2023/03/13 09:16:30;;;;;;;1.87;1.13;;;14.80;99.90;;;14.96;nan;99627.75;4953784;28;20632;-65
2023/03/13 09:18:58;;;;;;;0.87;0.87;;;14.80;99.90;;;14.98;nan;99620.53;4952324;28;20652;-65
2023/03/13 09:21:32;;;;;;;0.90;0.90;;;14.80;99.90;;;14.98;nan;99633.66;4951949;29;20638;-65
2023/03/13 09:24:00;;;;;;;1.00;0.90;;;14.80;99.90;;;15.01;nan;99622.84;4952817;28;20640;-64
2023/03/13 09:26:28;;;;;;;0.80;0.80;;;14.90;99.90;;;14.93;nan;99625.44;4954173;28;20996;-65
2023/03/13 09:28:55;;;;;;;0.57;0.57;;;14.80;99.90;;;14.89;nan;99615.41;4952251;28;20675;-65
2023/03/13 09:31:26;;;;;;;0.77;0.77;;;14.70;99.90;;;14.85;nan;99621.97;4954266;28;20634;-66
2023/03/13 09:33:53;;;;;;;5.27;0.80;;;14.70;99.90;;;14.78;nan;99616.53;4952064;28;20677;-65
2023/03/13 09:36:22;;;;;;;1.37;0.90;;;14.60;99.90;;;14.81;nan;99615.41;4945519;29;20636;-63
2023/03/13 09:38:56;;;;;;;0.87;0.87;;;14.60;99.90;;;14.75;nan;99611.63;4952124;28;20668;-64
2023/03/13 09:41:31;;;;;;;0.67;0.67;;;14.60;99.90;;;14.72;nan;99601.44;4952305;28;20715;-65
2023/03/13 09:44:39;;;;;;;1.20;1.10;;;14.50;99.90;;;14.67;nan;99588.00;4951885;28;20644;-65
2023/03/13 09:47:19;;;;;;;1.00;1.00;;;14.50;99.90;;;14.63;nan;99600.59;4924770;28;21252;-64
2023/03/13 09:50:10;;;;;;;0.83;0.83;;;14.50;99.90;;;14.53;nan;99585.97;4953686;29;20632;-65
2023/03/13 09:52:39;;;;;;;1.13;1.03;;;14.30;99.90;;;14.53;nan;99576.31;4950666;28;20675;-62
2023/03/13 09:55:22;;;;;;;0.90;0.70;;;14.30;99.90;;;14.52;nan;99576.47;4965377;28;20738;-66
2023/03/13 09:57:54;;;;;;;0.83;0.50;;;14.30;99.90;;;14.61;nan;99562.38;4964037;28;21059;-64
2023/03/13 10:00:27;;;;;;;0.70;0.70;;;14.40;99.90;;;15.09;nan;99553.72;4952679;28;20636;-65
2023/03/13 10:03:34;;;;;;;0.97;0.87;;;14.80;99.90;;;16.81;nan;99560.69;4952231;29;20992;-65
2023/03/13 10:06:11;;;;;;;0.80;0.80;;;16.30;99.90;;;17.69;nan;99565.22;4951022;28;20650;-68
2023/03/13 10:08:38;;;;;;;0.50;0.50;;;17.50;99.90;;;17.47;nan;99555.50;4962065;28;20667;-66
2023/03/13 10:11:29;;;;;;;0.97;0.93;;;17.40;99.90;;;17.33;nan;99558.13;4949721;29;20636;-67
2023/03/13 10:14:06;;;;;;;1.40;1.30;;;17.20;99.90;;;17.18;nan;99544.91;4950913;29;20664;-66
2023/03/13 10:17:13;;;;;;;1.73;1.17;;;17.10;99.90;;;17.04;nan;99543.03;4950368;29;20984;-66
2023/03/13 10:19:42;;;;;;;1.27;1.27;;;16.90;99.90;;;16.92;nan;99524.22;4951735;28;21197;-66
2023/03/13 10:22:25;;;;;;;1.07;1.07;;;16.80;99.90;;;16.85;nan;99533.00;4948187;29;20687;-66
2023/03/13 10:24:57;;;;;;;0.73;0.73;;;16.70;99.90;;;16.79;nan;99528.44;4959398;28;20637;-66
2023/03/13 10:27:24;;;;;;;1.37;1.23;;;16.70;99.90;;;16.91;nan;99519.09;4948649;28;21266;-66
2023/03/13 10:29:51;;;;;;;1.70;1.40;;;16.70;99.90;;;17.35;nan;99514.78;4952741;28;20644;-66
2023/03/13 10:32:19;;;;;;;6.23;2.30;;;17.10;99.90;;;17.81;nan;99513.63;4951830;29;20650;-66
2023/03/13 10:35:01;;;;;;;2.23;1.40;;;17.60;99.90;;;18.01;nan;99508.59;4948935;28;21063;-66
2023/03/13 10:37:32;;;;;;;1.83;1.73;;;17.80;99.90;;;18.33;nan;99505.53;4948780;28;21241;-64
2023/03/13 10:40:25;;;;;;;1.40;1.40;;;18.00;99.90;;;18.40;nan;99502.91;4965972;28;20630;-64
2023/03/13 10:43:14;;;;;;;1.67;1.47;;;18.30;99.90;;;18.33;nan;99500.25;4946301;28;20632;-65
2023/03/13 10:45:41;;;;;;;1.47;1.37;;;18.20;99.90;;;18.24;nan;99498.72;4948342;28;20624;-65